createdAt,value
2022-10-01T00:00:59.421Z,14.86
2022-10-01T00:02:59.509Z,14.93
2022-10-01T00:06:10.309Z,14.92
2022-10-01T00:08:10.343Z,14.3
2022-10-01T00:10:10.332Z,14.35
2022-10-01T00:12:10.324Z,14.53
2022-10-01T00:14:10.348Z,14.6
2022-10-01T00:16:10.341Z,14.56
2022-10-01T00:18:10.298Z,14.58
2022-10-01T00:21:17.107Z,14.65
2022-10-01T00:23:17.122Z,14.6
2022-10-01T00:25:17.128Z,14.4
2022-10-01T00:27:17.099Z,14.48
2022-10-01T00:29:17.122Z,14.51
2022-10-01T00:31:17.121Z,14.55
2022-10-01T00:33:17.100Z,14.59
2022-10-01T00:36:29.108Z,14.58
2022-10-01T00:38:29.170Z,14.56
2022-10-01T00:40:29.130Z,14.56
2022-10-01T00:42:29.164Z,14.54
2022-10-01T00:44:29.108Z,14.58
2022-10-01T00:46:29.163Z,14.19
2022-10-01T00:48:29.099Z,14.08
2022-10-01T00:51:27.630Z,14.08
2022-10-01T00:53:27.682Z,14.28
2022-10-01T00:55:27.652Z,14.28
2022-10-01T00:57:27.640Z,14.26
2022-10-01T00:59:27.607Z,14.27
2022-10-01T01:01:27.794Z,14.29
2022-10-01T01:03:27.608Z,14.01
2022-10-01T01:06:51.941Z,14.09
2022-10-01T01:08:51.935Z,13.96
2022-10-01T01:10:51.923Z,14.12
2022-10-01T01:12:51.944Z,14.15
2022-10-01T01:14:51.930Z,14.17
2022-10-01T01:16:51.970Z,14.12
2022-10-01T01:18:51.920Z,14.01
2022-10-01T01:21:53.178Z,13.81
2022-10-01T01:23:53.115Z,13.78
2022-10-01T01:25:53.117Z,13.73
2022-10-01T01:27:53.167Z,13.87
2022-10-01T01:29:53.136Z,13.76
2022-10-01T01:31:53.107Z,13.83
2022-10-01T01:33:53.115Z,13.92
2022-10-01T01:37:18.589Z,13.94
2022-10-01T01:39:18.585Z,14.06
2022-10-01T01:41:18.525Z,14.07
2022-10-01T01:43:18.575Z,14.12
2022-10-01T01:45:18.571Z,14.19
2022-10-01T01:47:18.563Z,14.19
2022-10-01T01:49:18.525Z,13.89
2022-10-01T01:52:02.262Z,13.95
2022-10-01T01:54:02.281Z,13.88
2022-10-01T01:56:02.238Z,14.02
2022-10-01T01:58:02.295Z,14.05
2022-10-01T02:00:02.232Z,14.03
2022-10-01T02:02:02.379Z,14.14
2022-10-01T02:04:02.249Z,14.21
2022-10-01T02:07:40.023Z,13.96
2022-10-01T02:09:40.060Z,13.89
2022-10-01T02:11:40.019Z,13.93
2022-10-01T02:13:40.019Z,13.9
2022-10-01T02:15:40.057Z,13.73
2022-10-01T02:17:40.046Z,13.84
2022-10-01T02:19:40.055Z,13.88
2022-10-01T02:22:08.170Z,13.74
2022-10-01T02:24:08.212Z,13.63
2022-10-01T02:26:08.171Z,13.35
2022-10-01T02:28:08.224Z,13.62
2022-10-01T02:30:08.187Z,13.7
2022-10-01T02:32:08.159Z,13.81
2022-10-01T02:34:12.315Z,13.87
2022-10-01T02:36:08.173Z,13.95
2022-10-01T02:37:58.707Z,13.91
2022-10-01T02:39:58.717Z,13.85
2022-10-01T02:41:58.719Z,13.74
2022-10-01T02:43:58.754Z,13.58
2022-10-01T02:45:58.787Z,13.33
2022-10-01T02:47:58.715Z,13.51
2022-10-01T02:49:58.727Z,13.62
2022-10-01T02:52:40.983Z,13.89
2022-10-01T02:54:40.928Z,13.96
2022-10-01T02:56:48.517Z,13.98
2022-10-01T02:58:40.929Z,14.08
2022-10-01T03:00:40.936Z,14.12
2022-10-01T03:02:41.008Z,14.09
2022-10-01T03:04:40.930Z,14
2022-10-01T03:08:25.816Z,13.85
2022-10-01T03:10:25.752Z,13.79
2022-10-01T03:12:25.746Z,13.92
2022-10-01T03:14:25.770Z,14.02
2022-10-01T03:16:25.826Z,13.91
2022-10-01T03:18:25.749Z,13.82
2022-10-01T03:20:25.739Z,13.89
2022-10-01T03:23:21.624Z,13.92
2022-10-01T03:25:21.602Z,13.89
2022-10-01T03:27:21.573Z,13.92
2022-10-01T03:29:21.608Z,13.88
2022-10-01T03:31:21.666Z,13.43
2022-10-01T03:33:21.572Z,13.71
2022-10-01T03:35:21.578Z,13.68
2022-10-01T03:38:32.383Z,13.82
2022-10-01T03:40:32.450Z,13.74
2022-10-01T03:42:32.367Z,13.75
2022-10-01T03:44:32.359Z,13.78
2022-10-01T03:46:32.374Z,14.07
2022-10-01T03:48:32.356Z,14.27
2022-10-01T03:50:32.382Z,14.6
2022-10-01T03:53:00.717Z,14.79
2022-10-01T03:55:00.719Z,14.97
2022-10-01T03:57:00.792Z,14.91
2022-10-01T03:59:00.699Z,14.85
2022-10-01T04:01:00.745Z,14.62
2022-10-01T04:03:00.748Z,14.03
2022-10-01T04:05:00.751Z,13.88
2022-10-01T04:07:00.748Z,14.09
2022-10-01T04:08:45.459Z,13.88
2022-10-01T04:10:45.468Z,14.05
2022-10-01T04:12:45.468Z,14.12
2022-10-01T04:14:45.466Z,14.24
2022-10-01T04:16:45.513Z,14.13
2022-10-01T04:18:45.435Z,14.21
2022-10-01T04:20:45.488Z,14.34
2022-10-01T04:24:14.925Z,14.42
2022-10-01T04:26:14.946Z,14.45
2022-10-01T04:28:15.028Z,14.53
2022-10-01T04:30:14.907Z,14.59
2022-10-01T04:32:14.945Z,14.71
2022-10-01T04:34:14.901Z,14.42
2022-10-01T04:36:14.905Z,14.34
2022-10-01T04:39:23.179Z,14.58
2022-10-01T04:41:23.183Z,14.55
2022-10-01T04:43:23.244Z,14.65
2022-10-01T04:45:23.174Z,14.56
2022-10-01T04:47:23.199Z,14.79
2022-10-01T04:49:23.177Z,15.06
2022-10-01T04:51:23.191Z,14.58
2022-10-01T04:54:33.271Z,14.35
2022-10-01T04:56:33.253Z,14.56
2022-10-01T04:58:33.229Z,14.55
2022-10-01T05:00:33.232Z,14.59
2022-10-01T05:02:33.289Z,14.7
2022-10-01T05:04:33.197Z,14.86
2022-10-01T05:06:33.211Z,14.96
2022-10-01T05:12:36.290Z,15.19
2022-10-01T05:14:36.352Z,15.37
2022-10-01T05:16:36.374Z,15.65
2022-10-01T05:18:36.297Z,15.89
2022-10-01T05:20:36.303Z,16.2
2022-10-01T05:22:36.276Z,16.12
2022-10-01T05:24:36.272Z,15.72
2022-10-01T05:25:56.734Z,15.33
2022-10-01T05:27:56.748Z,14.29
2022-10-01T05:29:56.698Z,13.44
2022-10-01T05:31:56.752Z,13.76
2022-10-01T05:33:56.731Z,14.68
2022-10-01T05:35:56.666Z,15.21
2022-10-01T05:37:56.670Z,15.48
2022-10-01T05:39:56.662Z,15.49
2022-10-01T05:41:40.546Z,15.8
2022-10-01T05:43:40.491Z,16.29
2022-10-01T05:45:40.570Z,16.95
2022-10-01T05:47:40.464Z,17.03
2022-10-01T05:49:40.593Z,17.34
2022-10-01T05:51:40.457Z,17.49
2022-10-01T05:53:40.459Z,17.41
2022-10-01T05:56:14.515Z,17.62
2022-10-01T05:58:14.623Z,17.78
2022-10-01T06:00:14.493Z,17.41
2022-10-01T06:02:14.546Z,17.45
2022-10-01T06:04:14.501Z,17.63
2022-10-01T06:06:14.528Z,17.97
2022-10-01T06:08:14.540Z,18.19
2022-10-01T06:10:14.496Z,18.35
2022-10-01T06:12:04.751Z,18.44
2022-10-01T06:14:04.789Z,18.69
2022-10-01T06:16:04.813Z,18.81
2022-10-01T06:18:04.768Z,18.88
2022-10-01T06:20:04.753Z,18.99
2022-10-01T06:22:04.801Z,18.75
2022-10-01T06:24:04.756Z,17.97
2022-10-01T06:27:30.154Z,17.26
2022-10-01T06:29:30.107Z,17.75
2022-10-01T06:31:30.173Z,18.02
2022-10-01T06:33:30.124Z,17.49
2022-10-01T06:35:30.106Z,17.99
2022-10-01T06:37:30.116Z,18.39
2022-10-01T06:39:30.097Z,18.81
2022-10-01T06:42:34.118Z,19.34
2022-10-01T06:44:34.081Z,19.49
2022-10-01T06:46:34.095Z,19.33
2022-10-01T06:48:34.110Z,19.13
2022-10-01T06:50:34.075Z,19.29
2022-10-01T06:52:34.109Z,19.47
2022-10-01T06:54:34.077Z,19.55
2022-10-01T06:57:20.044Z,19.88
2022-10-01T06:59:20.036Z,20.26
2022-10-01T07:01:20.125Z,20.42
2022-10-01T07:03:20.022Z,20.24
2022-10-01T07:05:20.047Z,20.02
2022-10-01T07:07:20.074Z,20.24
2022-10-01T07:09:20.031Z,20.56
2022-10-01T07:12:50.356Z,20.59
2022-10-01T07:14:50.385Z,20.85
2022-10-01T07:16:50.408Z,21.01
2022-10-01T07:18:50.331Z,21.24
2022-10-01T07:20:50.502Z,21.5
2022-10-01T07:22:50.332Z,21.57
2022-10-01T07:24:50.332Z,21.33
2022-10-01T07:28:03.528Z,21.25
2022-10-01T07:30:03.462Z,21.6
2022-10-01T07:32:03.473Z,21.73
2022-10-01T07:34:03.442Z,21.77
2022-10-01T07:36:03.506Z,21.66
2022-10-01T07:38:03.441Z,21.59
2022-10-01T07:40:07.270Z,21.5
2022-10-01T07:42:38.652Z,21.1
2022-10-01T07:44:38.659Z,21.04
2022-10-01T07:46:38.653Z,20.94
2022-10-01T07:48:38.688Z,20.87
2022-10-01T07:50:38.631Z,20.77
2022-10-01T07:52:38.700Z,20.64
2022-10-01T07:54:38.645Z,20.4
2022-10-01T07:58:10.430Z,20.34
2022-10-01T08:00:10.424Z,20.2
2022-10-01T08:02:10.486Z,20.21
2022-10-01T08:04:10.426Z,20.05
2022-10-01T08:06:10.421Z,20.02
2022-10-01T08:08:10.485Z,19.98
2022-10-01T08:10:10.414Z,19.99
2022-10-01T08:13:33.746Z,19.82
2022-10-01T08:15:33.741Z,19.86
2022-10-01T08:17:33.792Z,19.8
2022-10-01T08:19:33.761Z,19.74
2022-10-01T08:21:34.002Z,19.73
2022-10-01T08:23:33.860Z,19.76
2022-10-01T08:25:33.723Z,19.73
2022-10-01T08:28:10.467Z,19.65
2022-10-01T08:30:10.298Z,19.66
2022-10-01T08:32:10.353Z,19.64
2022-10-01T08:34:10.306Z,19.69
2022-10-01T08:36:10.313Z,19.67
2022-10-01T08:38:10.296Z,19.57
2022-10-01T08:40:10.394Z,19.66
2022-10-01T08:43:52.985Z,19.8
2022-10-01T08:45:53.049Z,19.59
2022-10-01T08:47:53.018Z,19.66
2022-10-01T08:49:52.970Z,19.55
2022-10-01T08:51:52.998Z,19.65
2022-10-01T08:53:52.966Z,19.55
2022-10-01T08:55:52.988Z,19.59
2022-10-01T08:58:55.609Z,19.57
2022-10-01T09:00:55.674Z,19.5
2022-10-01T09:02:55.587Z,19.5
2022-10-01T09:04:58.979Z,19.57
2022-10-01T09:06:55.575Z,19.44
2022-10-01T09:08:55.583Z,19.38
2022-10-01T09:10:55.611Z,19.27
2022-10-01T09:13:35.116Z,19
2022-10-01T09:15:35.069Z,19.05
2022-10-01T09:17:35.109Z,18.95
2022-10-01T09:19:35.060Z,18.8
2022-10-01T09:21:35.446Z,18.68
2022-10-01T09:23:35.078Z,18.67
2022-10-01T09:25:35.069Z,18.7
2022-10-01T09:29:03.326Z,18.53
2022-10-01T09:31:03.306Z,18.55
2022-10-01T09:33:03.308Z,18.66
2022-10-01T09:35:04.603Z,18.54
2022-10-01T09:37:03.353Z,18.52
2022-10-01T09:39:03.303Z,18.41
2022-10-01T09:41:03.317Z,18.03
2022-10-01T09:44:19.991Z,18.01
2022-10-01T09:46:19.986Z,18.16
2022-10-01T09:48:19.956Z,18.04
2022-10-01T09:50:19.990Z,18.32
2022-10-01T09:52:19.930Z,17.6
2022-10-01T09:54:19.985Z,16.95
2022-10-01T09:56:19.919Z,17.54
2022-10-01T09:59:14.862Z,17.66
2022-10-01T10:01:14.833Z,17.8
2022-10-01T10:03:14.848Z,17.86
2022-10-01T10:05:14.905Z,17.84
2022-10-01T10:07:14.818Z,17.96
2022-10-01T10:09:14.854Z,17.38
2022-10-01T10:11:14.799Z,17.93
2022-10-01T10:14:33.359Z,17.97
2022-10-01T10:16:33.715Z,18.22
2022-10-01T10:18:33.284Z,17.93
2022-10-01T10:20:33.287Z,18.28
2022-10-01T10:22:33.322Z,18.35
2022-10-01T10:24:33.299Z,18.31
2022-10-01T10:26:33.688Z,18.29
2022-10-01T10:29:36.766Z,18.03
2022-10-01T10:31:36.907Z,18.27
2022-10-01T10:33:36.793Z,18.1
2022-10-01T10:35:36.773Z,18.11
2022-10-01T10:37:36.792Z,18.16
2022-10-01T10:39:36.810Z,18.12
2022-10-01T10:41:37.261Z,18.06
2022-10-01T10:44:43.095Z,18.23
2022-10-01T10:46:46.108Z,17.79
2022-10-01T10:48:43.012Z,17.97
2022-10-01T10:50:43.119Z,18.22
2022-10-01T10:52:45.669Z,18.3
2022-10-01T10:54:43.069Z,18.54
2022-10-01T10:56:43.026Z,18.4
2022-10-01T10:59:39.620Z,18.59
2022-10-01T11:01:39.623Z,18.73
2022-10-01T11:03:39.598Z,18.86
2022-10-01T11:05:39.535Z,18.8
2022-10-01T11:07:39.557Z,18.73
2022-10-01T11:09:39.528Z,18.66
2022-10-01T11:11:39.542Z,18.78
2022-10-01T11:13:39.594Z,19
2022-10-01T11:15:09.826Z,19.14
2022-10-01T11:17:09.886Z,19.22
2022-10-01T11:19:09.924Z,19.35
2022-10-01T11:21:09.816Z,19.24
2022-10-01T11:23:09.823Z,19.52
2022-10-01T11:25:09.848Z,19.53
2022-10-01T11:27:09.808Z,19.65
2022-10-01T11:30:30.293Z,19.6
2022-10-01T11:32:30.217Z,19.31
2022-10-01T11:34:30.237Z,19.32
2022-10-01T11:36:30.277Z,19.56
2022-10-01T11:38:30.297Z,19.83
2022-10-01T11:40:30.244Z,19.9
2022-10-01T11:42:30.264Z,19.76
2022-10-01T11:45:38.175Z,19.19
2022-10-01T11:47:38.177Z,18.94
2022-10-01T11:49:38.177Z,18.96
2022-10-01T11:51:38.181Z,18.97
2022-10-01T11:53:38.199Z,18.57
2022-10-01T11:55:38.382Z,18.84
2022-10-01T11:57:38.144Z,18.97
2022-10-01T12:00:42.202Z,18.24
2022-10-01T12:02:42.177Z,18.71
2022-10-01T12:04:42.286Z,18.39
2022-10-01T12:06:42.223Z,18.17
2022-10-01T12:08:42.203Z,18.45
2022-10-01T12:10:42.177Z,17.65
2022-10-01T12:12:42.145Z,18.2
2022-10-01T12:15:56.059Z,18.18
2022-10-01T12:17:55.989Z,18.65
2022-10-01T12:19:56.067Z,19.17
2022-10-01T12:21:56.016Z,19.42
2022-10-01T12:23:55.995Z,19.56
2022-10-01T12:25:55.975Z,19.11
2022-10-01T12:27:56.015Z,19.38
2022-10-01T12:31:12.306Z,20.32
2022-10-01T12:33:12.311Z,20.24
2022-10-01T12:35:12.259Z,20.49
2022-10-01T12:37:12.224Z,20.8
2022-10-01T12:39:12.233Z,20.62
2022-10-01T12:41:12.369Z,20.95
2022-10-01T12:43:12.217Z,21.16
2022-10-01T12:46:46.143Z,21.33
2022-10-01T12:48:46.058Z,21.48
2022-10-01T12:50:46.135Z,21.53
2022-10-01T12:52:46.059Z,21.41
2022-10-01T12:54:46.048Z,20.79
2022-10-01T12:56:48.099Z,20.84
2022-10-01T12:58:46.104Z,20.52
2022-10-01T13:01:18.939Z,21.06
2022-10-01T13:03:18.947Z,20.38
2022-10-01T13:05:18.976Z,20.84
2022-10-01T13:07:18.940Z,20.95
2022-10-01T13:09:19.021Z,20.49
2022-10-01T13:11:18.941Z,20.59
2022-10-01T13:13:19.187Z,21.18
2022-10-01T13:16:35.251Z,20.74
2022-10-01T13:18:34.970Z,20.25
2022-10-01T13:20:35.075Z,20.39
2022-10-01T13:22:35.000Z,20.7
2022-10-01T13:24:35.068Z,21.03
2022-10-01T13:26:35.279Z,20.79
2022-10-01T13:28:35.048Z,20.89
2022-10-01T13:32:07.548Z,20.69
2022-10-01T13:34:07.486Z,20.46
2022-10-01T13:36:07.435Z,20.98
2022-10-01T13:38:07.544Z,21.03
2022-10-01T13:40:07.483Z,21.34
2022-10-01T13:42:09.988Z,21.56
2022-10-01T13:44:07.566Z,21.75
2022-10-01T13:46:50.988Z,21.87
2022-10-01T13:48:51.195Z,22.02
2022-10-01T13:50:51.129Z,22.22
2022-10-01T13:52:51.183Z,22.45
2022-10-01T13:54:50.927Z,22.53
2022-10-01T13:56:50.756Z,22.57
2022-10-01T13:58:50.859Z,22.44
2022-10-01T14:01:42.919Z,21.94
2022-10-01T14:03:42.906Z,22
2022-10-01T14:05:42.928Z,22
2022-10-01T14:07:42.841Z,21.78
2022-10-01T14:09:42.880Z,21.47
2022-10-01T14:11:42.857Z,21.21
2022-10-01T14:13:42.822Z,21.49
2022-10-01T14:15:42.917Z,21.72
2022-10-01T14:17:41.089Z,21.68
2022-10-01T14:19:41.068Z,21.72
2022-10-01T14:21:41.099Z,22.08
2022-10-01T14:23:41.185Z,22.11
2022-10-01T14:25:41.118Z,22.46
2022-10-01T14:27:41.127Z,22.64
2022-10-01T14:29:41.139Z,22.39
2022-10-01T14:32:24.991Z,22.29
2022-10-01T14:34:25.057Z,21.98
2022-10-01T14:36:24.968Z,22.19
2022-10-01T14:38:25.020Z,21.72
2022-10-01T14:40:24.984Z,22.1
2022-10-01T14:42:24.970Z,21.83
2022-10-01T14:44:25.000Z,21.84
2022-10-01T14:47:10.271Z,21.89
2022-10-01T14:49:10.206Z,22.03
2022-10-01T14:51:10.231Z,21.86
2022-10-01T14:53:10.195Z,22.07
2022-10-01T14:55:10.239Z,21.83
2022-10-01T14:57:10.221Z,21.97
2022-10-01T14:59:12.814Z,21.99
2022-10-01T15:01:10.232Z,21.96
2022-10-01T15:02:30.224Z,22.16
2022-10-01T15:04:30.262Z,22.16
2022-10-01T15:06:30.436Z,21.9
2022-10-01T15:08:30.210Z,21.89
2022-10-01T15:10:30.215Z,21.75
2022-10-01T15:12:30.252Z,21.85
2022-10-01T15:14:30.232Z,21.77
2022-10-01T15:17:50.312Z,21.66
2022-10-01T15:19:50.328Z,21.65
2022-10-01T15:21:50.282Z,21.6
2022-10-01T15:23:50.289Z,21.61
2022-10-01T15:25:50.303Z,21.65
2022-10-01T15:27:50.388Z,21.61
2022-10-01T15:29:53.912Z,21.57
2022-10-01T15:33:24.463Z,21.44
2022-10-01T15:35:24.421Z,21.44
2022-10-01T15:37:24.445Z,21.37
2022-10-01T15:39:24.403Z,21.26
2022-10-01T15:41:31.801Z,21.25
2022-10-01T15:43:24.457Z,21.27
2022-10-01T15:45:24.409Z,21.28
2022-10-01T15:47:50.781Z,21.23
2022-10-01T15:49:50.797Z,21.21
2022-10-01T15:51:50.793Z,21.12
2022-10-01T15:53:50.874Z,21.08
2022-10-01T15:55:50.766Z,20.98
2022-10-01T15:57:50.751Z,20.86
2022-10-01T15:59:50.753Z,20.81
2022-10-01T16:01:50.823Z,20.83
2022-10-01T16:03:04.488Z,20.86
2022-10-01T16:05:04.451Z,20.87
2022-10-01T16:07:04.456Z,20.74
2022-10-01T16:09:04.509Z,20.78
2022-10-01T16:11:04.419Z,20.77
2022-10-01T16:13:04.458Z,20.69
2022-10-01T16:15:04.457Z,20.6
2022-10-01T16:17:04.459Z,20.61
2022-10-01T16:18:13.075Z,20.61
2022-10-01T16:20:13.107Z,20.59
2022-10-01T16:22:13.053Z,20.54
2022-10-01T16:24:13.049Z,20.42
2022-10-01T16:26:13.150Z,20.33
2022-10-01T16:28:13.091Z,20.22
2022-10-01T16:30:13.216Z,20.06
2022-10-01T16:32:13.048Z,19.95
2022-10-01T16:33:52.475Z,20.03
2022-10-01T16:35:52.484Z,20.08
2022-10-01T16:37:52.591Z,20.11
2022-10-01T16:39:52.523Z,20.05
2022-10-01T16:42:06.572Z,20.05
2022-10-01T16:43:52.458Z,20.01
2022-10-01T16:45:52.501Z,19.88
2022-10-01T16:48:42.507Z,19.73
2022-10-01T16:50:42.565Z,19.85
2022-10-01T16:52:42.531Z,19.85
2022-10-01T16:54:42.581Z,19.91
2022-10-01T16:56:42.513Z,19.44
2022-10-01T16:58:42.510Z,19.52
2022-10-01T17:00:42.536Z,19.56
2022-10-01T17:04:29.330Z,19.21
2022-10-01T17:06:26.429Z,19.38
2022-10-01T17:08:26.497Z,19.49
2022-10-01T17:10:26.429Z,19.56
2022-10-01T17:12:26.418Z,19.66
2022-10-01T17:14:26.418Z,19.59
2022-10-01T17:16:26.510Z,19.66
2022-10-01T17:18:54.394Z,19.53
2022-10-01T17:20:54.413Z,19.47
2022-10-01T17:22:54.443Z,19.44
2022-10-01T17:24:54.479Z,19.37
2022-10-01T17:26:54.452Z,19.42
2022-10-01T17:28:54.406Z,19.45
2022-10-01T17:30:54.416Z,19.37
2022-10-01T17:32:54.421Z,19.44
2022-10-01T17:34:22.279Z,19.27
2022-10-01T17:36:22.273Z,19.37
2022-10-01T17:38:22.340Z,19.28
2022-10-01T17:40:22.295Z,19.41
2022-10-01T17:42:22.266Z,19.28
2022-10-01T17:44:22.330Z,19.49
2022-10-01T17:46:22.332Z,19.64
2022-10-01T17:49:56.235Z,19.64
2022-10-01T17:51:56.185Z,19.6
2022-10-01T17:53:56.176Z,19.44
2022-10-01T17:55:56.189Z,19.53
2022-10-01T17:57:56.217Z,19.34
2022-10-01T17:59:56.190Z,19.44
2022-10-01T18:01:56.254Z,19.49
2022-10-01T18:04:16.634Z,19.56
2022-10-01T18:06:16.651Z,19.6
2022-10-01T18:08:16.600Z,19.72
2022-10-01T18:10:16.603Z,19.71
2022-10-01T18:12:16.662Z,19.71
2022-10-01T18:14:16.607Z,19.36
2022-10-01T18:16:19.176Z,19.49
2022-10-01T18:19:31.334Z,19.51
2022-10-01T18:20:28.745Z,19.65
2022-10-01T18:22:28.788Z,19.67
2022-10-01T18:24:28.753Z,19.65
2022-10-01T18:26:28.798Z,19.49
2022-10-01T18:28:28.768Z,19.48
2022-10-01T18:30:28.761Z,19.6
2022-10-01T18:32:28.809Z,19.66
2022-10-01T18:35:34.180Z,19.45
2022-10-01T18:37:37.490Z,19.66
2022-10-01T18:39:34.156Z,19.57
2022-10-01T18:41:34.130Z,19.56
2022-10-01T18:43:34.269Z,19.65
2022-10-01T18:45:34.179Z,19.68
2022-10-01T18:47:34.109Z,19.71
2022-10-01T18:50:14.632Z,19.65
2022-10-01T18:52:14.630Z,19.64
2022-10-01T18:54:14.639Z,19.66
2022-10-01T18:56:14.622Z,19.57
2022-10-01T18:58:14.603Z,19.25
2022-10-01T19:00:14.717Z,19.72
2022-10-01T19:02:14.792Z,19.75
2022-10-01T19:05:35.670Z,19.78
2022-10-01T19:07:35.219Z,19.67
2022-10-01T19:09:35.173Z,19.62
2022-10-01T19:11:35.169Z,19.71
2022-10-01T19:13:35.180Z,19.49
2022-10-01T19:15:35.198Z,19.68
2022-10-01T19:17:35.208Z,19.57
2022-10-01T19:20:46.032Z,19.69
2022-10-01T19:22:42.636Z,19.69
2022-10-01T19:24:42.674Z,19.71
2022-10-01T19:26:42.778Z,19.82
2022-10-01T19:28:42.629Z,19.59
2022-10-01T19:30:42.665Z,19.51
2022-10-01T19:32:42.660Z,19.53
2022-10-01T19:35:51.488Z,19.51
2022-10-01T19:37:51.365Z,19.39
2022-10-01T19:39:51.367Z,19.35
2022-10-01T19:41:51.411Z,19.37
2022-10-01T19:43:51.360Z,19.45
2022-10-01T19:45:51.397Z,19.6
2022-10-01T19:47:51.418Z,19.62
2022-10-01T19:51:19.223Z,19.74
2022-10-01T19:53:19.226Z,19.71
2022-10-01T19:55:19.221Z,19.67
2022-10-01T19:57:19.209Z,19.66
2022-10-01T19:59:19.237Z,19.59
2022-10-01T20:01:19.281Z,19.61
2022-10-01T20:03:19.213Z,19.62
2022-10-01T20:06:16.552Z,19.57
2022-10-01T20:08:16.550Z,19.57
2022-10-01T20:10:16.588Z,19.65
2022-10-01T20:12:16.570Z,19.66
2022-10-01T20:14:16.558Z,19.62
2022-10-01T20:16:16.587Z,19.66
2022-10-01T20:18:16.559Z,19.64
2022-10-01T20:21:46.315Z,19.6
2022-10-01T20:23:46.285Z,19.58
2022-10-01T20:25:46.335Z,19.57
2022-10-01T20:27:49.262Z,19.53
2022-10-01T20:29:46.303Z,19.53
2022-10-01T20:31:46.356Z,19.5
2022-10-01T20:33:46.363Z,19.48
2022-10-01T20:36:36.638Z,19.44
2022-10-01T20:38:36.258Z,19.5
2022-10-01T20:40:36.286Z,19.4
2022-10-01T20:42:36.319Z,19.42
2022-10-01T20:44:36.285Z,19.41
2022-10-01T20:46:36.515Z,19.42
2022-10-01T20:48:36.334Z,19.41
2022-10-01T20:51:58.557Z,19.45
2022-10-01T20:53:58.571Z,19.41
2022-10-01T20:55:58.530Z,19.39
2022-10-01T20:57:58.517Z,19.35
2022-10-01T20:59:58.535Z,19.43
2022-10-01T21:01:58.603Z,19.42
2022-10-01T21:03:58.541Z,19.37
2022-10-01T21:06:47.650Z,19.13
2022-10-01T21:08:47.680Z,18.88
2022-10-01T21:10:47.685Z,18.63
2022-10-01T21:12:47.617Z,18.43
2022-10-01T21:14:47.648Z,18.31
2022-10-01T21:16:47.717Z,18.26
2022-10-01T21:18:47.637Z,18.08
2022-10-01T21:22:15.312Z,18.27
2022-10-01T21:24:15.305Z,18.35
2022-10-01T21:26:15.251Z,18.31
2022-10-01T21:28:15.315Z,18.25
2022-10-01T21:30:15.313Z,18.1
2022-10-01T21:32:15.249Z,17.92
2022-10-01T21:34:15.307Z,17.64
2022-10-01T21:37:15.809Z,17.73
2022-10-01T21:39:15.868Z,17.42
2022-10-01T21:41:15.879Z,17.44
2022-10-01T21:43:15.845Z,17.62
2022-10-01T21:45:15.854Z,17.65
2022-10-01T21:47:15.793Z,17.84
2022-10-01T21:49:15.797Z,18.04
2022-10-01T21:52:39.205Z,17.7
2022-10-01T21:54:39.198Z,17.89
2022-10-01T21:56:39.400Z,17.9
2022-10-01T21:58:39.211Z,18.1
2022-10-01T22:00:39.239Z,18.18
2022-10-01T22:02:39.202Z,18.31
2022-10-01T22:04:39.254Z,18.33
2022-10-01T22:08:04.271Z,18.02
2022-10-01T22:10:04.315Z,18.06
2022-10-01T22:12:04.426Z,18.28
2022-10-01T22:14:04.293Z,18.36
2022-10-01T22:16:04.291Z,18.4
2022-10-01T22:18:04.316Z,18.44
2022-10-01T22:20:04.270Z,18.32
2022-10-01T22:22:32.869Z,18.32
2022-10-01T22:24:32.912Z,18.31
2022-10-01T22:26:33.046Z,18.23
2022-10-01T22:28:32.929Z,18.1
2022-10-01T22:30:32.867Z,18.21
2022-10-01T22:32:32.883Z,18.21
2022-10-01T22:34:32.874Z,18.35
2022-10-01T22:38:00.223Z,18.51
2022-10-01T22:40:00.301Z,18.44
2022-10-01T22:42:00.317Z,18.39
2022-10-01T22:44:00.242Z,18.49
2022-10-01T22:46:00.260Z,18.54
2022-10-01T22:48:00.218Z,18.61
2022-10-01T22:50:00.224Z,18.6
2022-10-01T22:53:34.372Z,18.57
2022-10-01T22:55:34.367Z,18.56
2022-10-01T22:57:34.395Z,18.52
2022-10-01T22:59:34.372Z,18.57
2022-10-01T23:01:34.405Z,18.57
2022-10-01T23:03:34.355Z,18.56
2022-10-01T23:05:34.339Z,18.52
2022-10-01T23:08:44.027Z,18.57
2022-10-01T23:10:44.022Z,18.57
2022-10-01T23:12:44.070Z,18.48
2022-10-01T23:14:44.056Z,18.54
2022-10-01T23:16:44.072Z,18.6
2022-10-01T23:18:44.037Z,18.64
2022-10-01T23:20:44.030Z,18.36
2022-10-01T23:23:37.394Z,18.43
2022-10-01T23:25:37.389Z,18.48
2022-10-01T23:27:37.380Z,18.48
2022-10-01T23:29:37.430Z,18.42
2022-10-01T23:31:37.460Z,18.45
2022-10-01T23:33:37.428Z,18.44
2022-10-01T23:35:37.368Z,18.47
2022-10-01T23:38:38.032Z,18.51
2022-10-01T23:40:37.983Z,18.43
2022-10-01T23:42:37.984Z,18.52
2022-10-01T23:44:38.015Z,18.53
2022-10-01T23:46:38.266Z,18.51
2022-10-01T23:48:38.015Z,18.5
2022-10-01T23:50:37.976Z,18.51
2022-10-01T23:53:40.602Z,18.47
2022-10-01T23:55:40.556Z,18.44
2022-10-01T23:57:40.561Z,18.4
2022-10-01T23:59:40.590Z,18.27
